Time;durP1;ratioP1;P1;durP2;ratioP2;P2;SDS_P1;SDS_P2;PMS_P1;PMS_P2;Temp;Humidity;BMP_temperature;BMP_pressure;BME280_temperature;BME280_humidity;BME280_pressure;Samples;Min_cycle;Max_cycle;Signal;HPM_P1;HPM_P2
2021/11/13 00:00:08;;;;;;;62.15;33.35;;;14.30;99.90;;;;;;5094654;28;20020;-81
2021/11/13 00:02:34;;;;;;;56.90;34.67;;;14.30;99.90;;;;;;5112871;28;20032;-81
2021/11/13 00:05:00;;;;;;;59.30;34.05;;;14.30;99.90;;;;;;5112850;28;20022;-81
2021/11/13 00:07:25;;;;;;;58.75;33.38;;;14.30;99.90;;;;;;5112908;28;20027;-80
2021/11/13 00:09:51;;;;;;;72.03;34.95;;;14.30;99.90;;;;;;5112390;28;20055;-81
2021/11/13 00:12:17;;;;;;;56.05;32.90;;;14.30;99.90;;;;;;5112459;28;20020;-81
2021/11/13 00:14:45;;;;;;;58.20;34.38;;;14.20;99.90;;;;;;5112269;28;20108;-81
2021/11/13 00:17:12;;;;;;;64.30;35.72;;;14.30;99.90;;;;;;5111255;28;20065;-79
2021/11/13 00:19:38;;;;;;;62.15;36.63;;;14.30;99.90;;;;;;5112734;28;20016;-79
2021/11/13 00:22:04;;;;;;;58.95;35.42;;;14.30;99.90;;;;;;5112972;28;20023;-78
2021/11/13 00:24:30;;;;;;;61.38;35.92;;;14.20;99.90;;;;;;5112302;28;20023;-80
2021/11/13 00:26:56;;;;;;;68.95;35.22;;;14.20;99.90;;;;;;5112301;28;20015;-80
2021/11/13 00:29:22;;;;;;;58.67;33.83;;;14.20;99.90;;;;;;5112880;28;20031;-79
2021/11/13 00:31:49;;;;;;;67.05;36.67;;;14.20;99.90;;;;;;5112776;28;20068;-80
2021/11/13 00:34:15;;;;;;;65.00;35.13;;;14.20;99.90;;;;;;5111973;28;20028;-80
2021/11/13 00:36:41;;;;;;;63.92;35.20;;;14.20;99.90;;;;;;5112523;28;20047;-79
2021/11/13 00:39:07;;;;;;;66.75;36.28;;;14.20;99.90;;;;;;5094033;28;20020;-81
2021/11/13 00:41:33;;;;;;;64.38;37.70;;;14.20;99.90;;;;;;5112309;28;20077;-81
2021/11/13 00:43:59;;;;;;;65.13;35.55;;;14.20;99.90;;;;;;5112357;28;20102;-81
2021/11/13 00:46:25;;;;;;;72.13;37.67;;;14.20;99.90;;;;;;5112372;28;20407;-81
2021/11/13 00:48:50;;;;;;;64.18;37.05;;;14.20;99.90;;;;;;5113407;28;20039;-80
2021/11/13 00:51:16;;;;;;;61.33;36.33;;;14.30;99.90;;;;;;5115906;28;20091;-81
2021/11/13 00:53:42;;;;;;;68.55;36.70;;;14.30;99.90;;;;;;5115879;28;20028;-79
2021/11/13 00:56:08;;;;;;;68.57;37.50;;;14.30;99.90;;;;;;5115667;28;20479;-80
2021/11/13 00:58:35;;;;;;;64.65;37.45;;;14.30;99.90;;;;;;5115885;28;20087;-80
2021/11/13 01:01:01;;;;;;;64.05;35.38;;;14.30;99.90;;;;;;5115703;28;20428;-81
2021/11/13 01:03:26;;;;;;;67.45;37.67;;;14.30;99.90;;;;;;5115279;28;20030;-81
2021/11/13 01:05:52;;;;;;;62.22;35.08;;;14.30;99.90;;;;;;5115703;28;20110;-81
2021/11/13 01:08:18;;;;;;;68.78;36.67;;;14.30;99.90;;;;;;5115735;28;20076;-81
2021/11/13 01:10:43;;;;;;;63.25;32.83;;;14.30;99.90;;;;;;5115853;28;20027;-80
2021/11/13 01:13:09;;;;;;;52.33;30.85;;;14.40;99.90;;;;;;5115497;28;20035;-81
2021/11/13 01:15:35;;;;;;;50.70;29.98;;;14.30;99.90;;;;;;5115408;28;20024;-80
2021/11/13 01:18:02;;;;;;;50.92;28.60;;;14.30;99.90;;;;;;5115384;28;20055;-81
2021/11/13 01:20:29;;;;;;;63.78;28.00;;;14.30;99.90;;;;;;5114333;28;20019;-80
2021/11/13 01:22:56;;;;;;;49.70;26.60;;;14.30;99.90;;;;;;5115164;28;20364;-81
2021/11/13 01:25:22;;;;;;;55.95;28.55;;;14.20;99.90;;;;;;5114911;28;20531;-81
2021/11/13 01:27:47;;;;;;;49.30;27.30;;;14.20;99.90;;;;;;5115172;28;20076;-81
2021/11/13 01:30:14;;;;;;;46.65;26.88;;;14.20;99.90;;;;;;5115096;28;20352;-79
2021/11/13 01:32:40;;;;;;;51.97;27.55;;;14.20;99.90;;;;;;5115091;28;20653;-80
2021/11/13 01:35:08;;;;;;;57.42;27.42;;;14.20;99.90;;;;;;5106192;28;20056;-80
2021/11/13 01:37:34;;;;;;;54.28;25.63;;;14.20;99.90;;;;;;5094787;28;20072;-82
2021/11/13 01:40:00;;;;;;;52.78;27.13;;;14.10;99.90;;;;;;5094867;28;20059;-80
2021/11/13 01:42:29;;;;;;;46.38;26.10;;;14.10;99.90;;;;;;5094988;28;20024;-81
2021/11/13 01:44:55;;;;;;;47.75;26.38;;;14.20;99.90;;;;;;5094396;28;20016;-81
2021/11/13 01:47:22;;;;;;;44.65;25.58;;;14.20;99.90;;;;;;5094830;28;20103;-80
2021/11/13 01:49:47;;;;;;;47.47;26.58;;;14.20;99.90;;;;;;5094401;28;20074;-81
2021/11/13 01:52:15;;;;;;;49.30;27.05;;;14.20;99.90;;;;;;5094565;28;20024;-79
2021/11/13 01:54:42;;;;;;;50.05;26.98;;;14.30;99.90;;;;;;5094800;28;20177;-81
2021/11/13 01:57:12;;;;;;;48.92;27.98;;;14.30;99.90;;;;;;5094812;28;20042;-81
2021/11/13 01:59:40;;;;;;;54.28;28.20;;;14.30;99.90;;;;;;5094104;28;20035;-81
2021/11/13 02:02:07;;;;;;;55.70;28.05;;;14.30;99.90;;;;;;5094638;28;20020;-76
2021/11/13 02:04:33;;;;;;;48.85;28.33;;;14.30;99.90;;;;;;5093945;28;20030;-82
2021/11/13 02:07:00;;;;;;;53.92;26.83;;;14.30;99.90;;;;;;5094245;28;20024;-81
2021/11/13 02:09:26;;;;;;;48.95;27.23;;;14.40;99.90;;;;;;5094014;28;20028;-81
2021/11/13 02:11:53;;;;;;;50.80;26.15;;;14.40;99.90;;;;;;5094221;28;20016;-79
2021/11/13 02:14:19;;;;;;;46.97;25.90;;;14.40;99.90;;;;;;5094081;28;20525;-81
2021/11/13 02:16:45;;;;;;;53.78;26.00;;;14.40;99.90;;;;;;5094110;28;20024;-81
2021/11/13 02:19:11;;;;;;;56.83;26.85;;;14.40;99.90;;;;;;5093861;28;20020;-81
2021/11/13 02:21:37;;;;;;;47.25;25.95;;;14.40;99.90;;;;;;5093968;28;20024;-80
2021/11/13 02:24:03;;;;;;;52.75;25.50;;;14.40;99.90;;;;;;5093998;28;20020;-82
2021/11/13 02:26:29;;;;;;;62.92;26.80;;;14.40;99.90;;;;;;5075811;28;20035;-81
2021/11/13 02:28:55;;;;;;;55.72;27.13;;;14.40;99.90;;;;;;5093747;28;20119;-81
2021/11/13 02:31:38;;;;;;;51.75;27.17;;;14.30;99.90;;;;;;5093650;28;20069;-80
2021/11/13 02:34:08;;;;;;;53.65;26.77;;;14.30;99.90;;;;;;5093803;28;20031;-80
2021/11/13 02:36:34;;;;;;;46.03;26.70;;;14.30;99.90;;;;;;5093855;28;20036;-81
2021/11/13 02:39:00;;;;;;;50.50;26.20;;;14.30;99.90;;;;;;5075633;28;20024;-80
2021/11/13 02:41:28;;;;;;;47.20;27.33;;;14.30;99.90;;;;;;5093618;28;20048;-81
2021/11/13 02:43:58;;;;;;;48.45;27.35;;;14.30;99.90;;;;;;5093773;28;20039;-81
2021/11/13 02:46:26;;;;;;;56.75;26.60;;;14.30;99.90;;;;;;5093491;28;20020;-81
2021/11/13 02:48:51;;;;;;;52.67;27.95;;;14.30;99.90;;;;;;5093578;28;20039;-81
2021/11/13 02:51:17;;;;;;;56.10;27.20;;;14.30;99.90;;;;;;5075383;28;20058;-80
2021/11/13 02:53:46;;;;;;;48.92;26.05;;;14.30;99.90;;;;;;5093353;28;20040;-81
2021/11/13 02:56:12;;;;;;;50.17;25.88;;;14.30;99.90;;;;;;5093558;28;20027;-80
2021/11/13 02:58:39;;;;;;;46.33;25.67;;;14.30;99.90;;;;;;5093713;28;20024;-80
2021/11/13 03:01:15;;;;;;;55.17;26.55;;;14.30;99.90;;;;;;5093398;28;20034;-80
2021/11/13 03:03:41;;;;;;;51.65;25.90;;;14.30;99.90;;;;;;5093181;28;20055;-81
2021/11/13 03:06:12;;;;;;;44.47;26.80;;;14.30;99.90;;;;;;5093033;28;20455;-80
2021/11/13 03:08:39;;;;;;;54.15;27.88;;;14.30;99.90;;;;;;5093320;28;20085;-80
2021/11/13 03:11:07;;;;;;;47.60;27.15;;;14.30;99.90;;;;;;5092505;28;20035;-81
2021/11/13 03:13:34;;;;;;;51.22;27.05;;;14.30;99.90;;;;;;5093009;28;20439;-81
2021/11/13 03:16:01;;;;;;;48.30;26.42;;;14.30;99.90;;;;;;5093239;28;20023;-81
2021/11/13 03:18:27;;;;;;;47.75;28.55;;;14.40;99.90;;;;;;5093104;28;20027;-81
2021/11/13 03:20:53;;;;;;;49.92;27.42;;;14.30;99.90;;;;;;5092801;28;20888;-81
2021/11/13 03:23:20;;;;;;;53.13;27.90;;;14.30;99.90;;;;;;5093195;28;20039;-80
2021/11/13 03:25:54;;;;;;;53.25;26.98;;;14.30;99.90;;;;;;5093229;28;20383;-82
2021/11/13 03:28:22;;;;;;;49.63;26.13;;;14.30;99.90;;;;;;5093061;28;20141;-80
2021/11/13 03:30:48;;;;;;;49.75;26.70;;;14.30;99.90;;;;;;5074553;28;20659;-81
2021/11/13 03:33:14;;;;;;;49.15;26.73;;;14.30;99.90;;;;;;5092958;28;20074;-81
2021/11/13 03:35:40;;;;;;;50.72;26.50;;;14.30;99.90;;;;;;5092609;28;20379;-81
2021/11/13 03:38:12;;;;;;;48.95;26.08;;;14.30;99.90;;;;;;5092470;28;20502;-81
2021/11/13 03:40:39;;;;;;;;;;;14.30;99.90;;;;;;5093137;28;20513;-82
2021/11/13 03:43:05;;;;;;;46.60;25.65;;;14.30;99.90;;;;;;5092608;28;19908;-81
2021/11/13 03:45:32;;;;;;;50.17;25.40;;;14.30;99.90;;;;;;5074800;28;20476;-81
2021/11/13 03:47:58;;;;;;;43.50;24.80;;;14.20;99.90;;;;;;5092550;28;20047;-81
2021/11/13 03:50:24;;;;;;;41.45;25.35;;;14.30;99.90;;;;;;5092673;28;20498;-81
2021/11/13 03:52:51;;;;;;;40.78;25.10;;;14.30;99.90;;;;;;5092917;28;20012;-81
2021/11/13 03:55:17;;;;;;;51.03;25.98;;;14.30;99.90;;;;;;5092426;28;20433;-78
2021/11/13 03:57:43;;;;;;;43.80;25.17;;;14.30;99.90;;;;;;5092570;28;20111;-80
2021/11/13 04:00:09;;;;;;;49.55;26.17;;;14.20;99.90;;;;;;5092762;28;20026;-81
2021/11/13 04:02:35;;;;;;;47.28;26.08;;;14.30;99.90;;;;;;5092701;28;20032;-81
2021/11/13 04:05:01;;;;;;;45.30;24.98;;;14.30;99.90;;;;;;5092564;28;20024;-80
2021/11/13 04:07:27;;;;;;;55.75;26.90;;;14.30;99.90;;;;;;5092815;28;20024;-80
2021/11/13 04:09:53;;;;;;;44.75;25.80;;;14.20;99.90;;;;;;5092709;28;20422;-81
2021/11/13 04:12:18;;;;;;;42.88;24.52;;;14.20;99.90;;;;;;5092867;28;20028;-79
2021/11/13 04:14:45;;;;;;;46.47;27.60;;;14.20;99.90;;;;;;5091821;28;20050;-80
2021/11/13 04:17:11;;;;;;;52.55;26.77;;;14.20;99.90;;;;;;5092113;28;20024;-78
2021/11/13 04:19:38;;;;;;;47.45;27.83;;;14.20;99.90;;;;;;5092156;28;20024;-79
2021/11/13 04:22:04;;;;;;;50.95;26.23;;;14.20;99.90;;;;;;5092053;28;20507;-81
2021/11/13 04:24:29;;;;;;;49.42;27.73;;;14.20;99.90;;;;;;5096717;28;20068;-80
2021/11/13 04:26:55;;;;;;;51.97;27.00;;;14.10;99.90;;;;;;5096499;28;20024;-75
2021/11/13 04:29:21;;;;;;;54.22;27.80;;;14.20;99.90;;;;;;5077784;28;20429;-81
2021/11/13 04:31:47;;;;;;;53.85;28.52;;;14.20;99.90;;;;;;5095644;28;20058;-81
2021/11/13 04:34:18;;;;;;;49.38;28.95;;;14.20;99.90;;;;;;5096328;28;20036;-81
2021/11/13 04:36:46;;;;;;;54.97;28.90;;;14.20;99.90;;;;;;5096102;28;20040;-79
2021/11/13 04:39:13;;;;;;;52.78;29.73;;;14.20;99.90;;;;;;5096103;28;20028;-80
2021/11/13 04:41:39;;;;;;;58.00;32.33;;;14.20;99.90;;;;;;5095762;28;20048;-81
2021/11/13 04:44:05;;;;;;;56.95;31.08;;;14.20;99.90;;;;;;5095677;28;20515;-80
2021/11/13 04:46:31;;;;;;;58.55;32.25;;;14.20;99.90;;;;;;5095719;28;20024;-79
2021/11/13 04:48:57;;;;;;;63.08;33.90;;;14.20;99.90;;;;;;5096025;28;20535;-80
2021/11/13 04:51:23;;;;;;;65.53;33.50;;;14.20;99.90;;;;;;5095628;28;20467;-80
2021/11/13 04:53:49;;;;;;;68.07;33.78;;;14.30;99.90;;;;;;5095481;28;20032;-77
2021/11/13 04:56:15;;;;;;;57.33;34.97;;;14.30;99.90;;;;;;5095416;28;20119;-81
2021/11/13 04:58:41;;;;;;;63.92;35.00;;;14.30;99.90;;;;;;5095567;28;20051;-82
2021/11/13 05:01:07;;;;;;;55.47;33.50;;;14.30;99.90;;;;;;5095603;28;20460;-81
2021/11/13 05:03:33;;;;;;;67.57;35.40;;;14.30;99.90;;;;;;5077057;28;20024;-78
2021/11/13 05:05:59;;;;;;;58.53;31.90;;;14.30;99.90;;;;;;5095336;28;20456;-77
2021/11/13 05:08:25;;;;;;;48.97;30.02;;;14.30;99.90;;;;;;5095298;28;20028;-79
2021/11/13 05:10:51;;;;;;;56.47;31.00;;;14.30;99.90;;;;;;5095267;28;20028;-79
2021/11/13 05:13:18;;;;;;;47.55;28.40;;;14.30;99.90;;;;;;5095269;28;20073;-80
2021/11/13 05:15:44;;;;;;;53.50;31.13;;;14.30;99.90;;;;;;5095350;28;20111;-80
2021/11/13 05:18:10;;;;;;;49.65;30.25;;;14.30;99.90;;;;;;5095498;28;20081;-80
2021/11/13 05:20:36;;;;;;;57.92;33.25;;;14.40;99.90;;;;;;5095335;28;20020;-81
2021/11/13 05:23:02;;;;;;;54.60;30.95;;;14.40;99.90;;;;;;5095083;28;20024;-81
2021/11/13 05:25:28;;;;;;;54.90;31.63;;;14.40;99.90;;;;;;5095175;28;20032;-81
2021/11/13 05:27:54;;;;;;;56.72;32.97;;;14.40;99.90;;;;;;5077085;28;20564;-80
2021/11/13 05:30:23;;;;;;;63.15;33.72;;;14.40;99.90;;;;;;5095190;28;20035;-80
2021/11/13 05:32:50;;;;;;;55.97;32.25;;;14.40;99.90;;;;;;5094909;28;20027;-80
2021/11/13 05:35:16;;;;;;;52.03;30.45;;;14.40;99.90;;;;;;5093742;28;20028;-82
2021/11/13 05:37:43;;;;;;;55.67;31.30;;;14.40;99.90;;;;;;5076571;28;20040;-81
2021/11/13 05:40:10;;;;;;;50.72;29.35;;;14.40;99.90;;;;;;5095083;28;20028;-80
2021/11/13 05:42:37;;;;;;;56.92;29.27;;;14.40;99.90;;;;;;5076846;28;20024;-80
2021/11/13 05:45:04;;;;;;;50.40;28.85;;;14.40;99.90;;;;;;5094748;28;20099;-78
2021/11/13 05:47:30;;;;;;;49.83;30.00;;;14.40;99.90;;;;;;5094707;28;20078;-80
2021/11/13 05:49:56;;;;;;;50.28;29.15;;;14.40;99.90;;;;;;5094676;28;20383;-79
2021/11/13 05:52:22;;;;;;;50.40;29.23;;;14.40;99.90;;;;;;5113421;28;20028;-78
2021/11/13 05:54:48;;;;;;;50.22;29.38;;;14.40;99.90;;;;;;5114452;28;20400;-78
2021/11/13 05:57:14;;;;;;;57.78;31.08;;;14.40;99.90;;;;;;5114946;28;20019;-78
2021/11/13 05:59:40;;;;;;;53.88;29.83;;;14.40;99.90;;;;;;5115043;28;20031;-81
2021/11/13 06:02:06;;;;;;;52.47;28.83;;;14.40;99.90;;;;;;5114992;28;20129;-81
2021/11/13 06:04:31;;;;;;;48.67;29.63;;;14.50;99.90;;;;;;5095958;28;20027;-81
2021/11/13 06:06:59;;;;;;;49.53;29.38;;;14.50;99.90;;;;;;5113806;28;20028;-80
2021/11/13 06:09:25;;;;;;;55.00;31.00;;;14.50;99.90;;;;;;5114789;28;20019;-81
2021/11/13 06:11:50;;;;;;;59.53;32.08;;;14.50;99.90;;;;;;5114679;28;20018;-79
2021/11/13 06:14:16;;;;;;;50.88;29.30;;;14.50;99.90;;;;;;5114578;28;20483;-81
2021/11/13 06:16:42;;;;;;;52.05;28.65;;;14.50;99.90;;;;;;5114516;28;20065;-81
2021/11/13 06:19:07;;;;;;;52.88;30.45;;;14.50;99.90;;;;;;5114599;28;20030;-81
2021/11/13 06:21:33;;;;;;;56.78;30.50;;;14.50;99.90;;;;;;5114750;28;20360;-81
2021/11/13 06:23:59;;;;;;;56.85;30.75;;;14.60;99.90;;;;;;5114175;28;20031;-78
2021/11/13 06:26:24;;;;;;;50.70;29.27;;;14.50;99.90;;;;;;5114113;28;20045;-79
2021/11/13 06:28:50;;;;;;;59.45;32.47;;;14.60;99.90;;;;;;5114335;28;20387;-78
2021/11/13 06:31:16;;;;;;;57.25;32.17;;;14.60;99.90;;;;;;5114245;28;20015;-81
2021/11/13 06:33:42;;;;;;;53.97;33.47;;;14.60;99.90;;;;;;5114021;28;20379;-81
2021/11/13 06:36:07;;;;;;;68.95;35.60;;;14.60;99.90;;;;;;5113875;28;20023;-75
2021/11/13 06:38:34;;;;;;;75.05;40.55;;;14.60;99.90;;;;;;5114235;28;20041;-81
2021/11/13 06:41:00;;;;;;;90.25;40.92;;;14.70;99.90;;;;;;5114183;28;20471;-78
2021/11/13 06:43:25;;;;;;;71.97;39.72;;;14.60;99.90;;;;;;5114103;28;20028;-82
2021/11/13 06:45:51;;;;;;;72.13;40.28;;;14.70;99.90;;;;;;5114105;28;20028;-80
2021/11/13 06:48:17;;;;;;;88.85;38.63;;;14.70;99.90;;;;;;5114248;28;20030;-78
2021/11/13 06:50:46;;;;;;;82.60;42.88;;;14.70;99.90;;;;;;5114167;28;20482;-82
2021/11/13 06:53:12;;;;;;;82.45;42.40;;;14.70;99.90;;;;;;5113802;28;20532;-81
2021/11/13 06:55:37;;;;;;;77.75;42.03;;;14.70;99.90;;;;;;5114004;28;20027;-77
2021/11/13 06:58:03;;;;;;;82.45;44.13;;;14.70;99.90;;;;;;5113879;28;20031;-78
2021/11/13 07:00:29;;;;;;;85.03;42.78;;;14.70;99.90;;;;;;5113651;28;20023;-80
2021/11/13 07:02:59;;;;;;;81.90;43.95;;;14.80;99.90;;;;;;5113702;28;20030;-81
2021/11/13 07:05:25;;;;;;;99.38;45.08;;;14.80;99.90;;;;;;5113428;28;20034;-81
2021/11/13 07:07:51;;;;;;;85.80;43.83;;;14.80;99.90;;;;;;5113447;28;20031;-78
2021/11/13 07:10:17;;;;;;;84.45;45.65;;;14.80;99.90;;;;;;5095444;28;20393;-76
2021/11/13 07:12:43;;;;;;;83.25;46.38;;;14.80;99.90;;;;;;5113869;28;20110;-80
2021/11/13 07:15:12;;;;;;;89.03;46.63;;;14.80;99.90;;;;;;5113115;28;20051;-81
2021/11/13 07:17:38;;;;;;;94.15;47.17;;;14.80;99.90;;;;;;5113109;28;20095;-80
2021/11/13 07:20:04;;;;;;;91.30;46.25;;;14.80;99.90;;;;;;5113037;28;20024;-81
2021/11/13 07:22:30;;;;;;;84.07;47.03;;;14.80;99.90;;;;;;5112990;28;20023;-81
2021/11/13 07:24:56;;;;;;;85.13;46.60;;;14.80;99.90;;;;;;5113068;28;20459;-81
2021/11/13 07:27:22;;;;;;;93.82;50.03;;;14.90;99.90;;;;;;5113181;28;20058;-82
2021/11/13 07:29:57;;;;;;;88.63;48.97;;;14.90;99.90;;;;;;5113321;28;20054;-82
2021/11/13 07:32:24;;;;;;;85.68;45.35;;;14.90;99.90;;;;;;5113525;28;20023;-80
2021/11/13 07:34:50;;;;;;;91.32;47.28;;;14.90;99.90;;;;;;5094984;28;20039;-81
2021/11/13 07:37:16;;;;;;;88.60;48.35;;;14.90;99.90;;;;;;5112789;28;20540;-81
2021/11/13 07:39:42;;;;;;;90.82;47.03;;;14.90;99.90;;;;;;5112847;28;20031;-80
2021/11/13 07:42:08;;;;;;;87.03;48.08;;;14.90;99.90;;;;;;5112905;28;20024;-80
2021/11/13 07:44:34;;;;;;;90.78;47.75;;;14.90;99.90;;;;;;5112476;28;20036;-80
2021/11/13 07:47:00;;;;;;;83.57;45.70;;;14.90;99.90;;;;;;5112326;28;20019;-80
2021/11/13 07:49:26;;;;;;;75.43;39.53;;;14.90;99.90;;;;;;5112602;28;20030;-79
2021/11/13 07:51:52;;;;;;;71.63;41.03;;;15.00;99.90;;;;;;5104349;28;20020;-80
2021/11/13 07:54:18;;;;;;;82.30;41.17;;;15.00;99.90;;;;;;5094007;28;20051;-80
2021/11/13 07:56:44;;;;;;;75.85;41.40;;;14.90;99.90;;;;;;5093939;28;21435;-80
2021/11/13 07:59:11;;;;;;;84.70;41.05;;;15.00;99.90;;;;;;5116305;28;20016;-79
2021/11/13 08:01:36;;;;;;;88.43;42.78;;;15.00;99.90;;;;;;5116703;28;20019;-80
2021/11/13 08:04:02;;;;;;;92.15;44.60;;;15.00;99.90;;;;;;5116450;28;20051;-77
2021/11/13 08:06:28;;;;;;;77.30;41.35;;;15.00;99.90;;;;;;5113465;28;20043;-79
2021/11/13 08:08:54;;;;;;;80.07;41.20;;;15.00;99.90;;;;;;5116365;28;20027;-80
2021/11/13 08:11:20;;;;;;;70.75;40.17;;;15.00;99.90;;;;;;5116246;28;20020;-82
2021/11/13 08:13:46;;;;;;;66.80;37.28;;;15.00;99.90;;;;;;5116272;28;20535;-81
2021/11/13 08:16:13;;;;;;;74.13;39.85;;;15.10;99.90;;;;;;5116293;28;20589;-81
2021/11/13 08:18:38;;;;;;;71.07;38.53;;;15.10;99.90;;;;;;5116322;28;20012;-81
2021/11/13 08:21:05;;;;;;;67.28;39.50;;;15.10;99.90;;;;;;5115911;28;20286;-78
2021/11/13 08:23:31;;;;;;;65.90;38.17;;;15.10;99.90;;;;;;5115828;28;20024;-80
2021/11/13 08:25:58;;;;;;;69.88;40.25;;;15.00;99.90;;;;;;5116153;28;20494;-81
2021/11/13 08:28:24;;;;;;;78.30;38.58;;;15.00;99.90;;;;;;5117061;28;20024;-76
2021/11/13 08:30:51;;;;;;;79.55;39.72;;;15.00;99.90;;;;;;5116470;28;20095;-76
2021/11/13 08:33:18;;;;;;;75.68;42.20;;;15.00;99.90;;;;;;5116497;28;20352;-76
2021/11/13 08:35:45;;;;;;;82.70;44.30;;;15.00;99.90;;;;;;5098110;28;20088;-77
2021/11/13 08:38:16;;;;;;;83.88;43.20;;;15.00;99.90;;;;;;5116413;28;20063;-77
2021/11/13 08:40:43;;;;;;;89.60;51.70;;;15.00;99.90;;;;;;5116694;28;20027;-77
2021/11/13 08:43:09;;;;;;;83.07;43.38;;;15.00;99.90;;;;;;5116623;28;20099;-76
2021/11/13 08:45:35;;;;;;;104.78;56.85;;;15.00;99.90;;;;;;5116300;28;20394;-75
2021/11/13 08:48:01;;;;;;;82.88;48.80;;;14.90;99.90;;;;;;5116079;28;20024;-76
2021/11/13 08:50:29;;;;;;;82.82;44.85;;;14.90;99.90;;;;;;5116099;28;20479;-75
2021/11/13 08:52:58;;;;;;;79.50;43.60;;;14.90;99.90;;;;;;5115559;28;20031;-75
2021/11/13 08:55:27;;;;;;;84.22;44.90;;;14.90;99.90;;;;;;5114966;28;20027;-75
2021/11/13 08:57:53;;;;;;;74.65;40.55;;;15.00;99.90;;;;;;5115206;28;20015;-75
2021/11/13 09:00:28;;;;;;;73.80;40.00;;;15.00;99.90;;;;;;5096192;28;20539;-75
2021/11/13 09:02:57;;;;;;;77.10;40.83;;;14.90;99.90;;;;;;5114547;28;20468;-74
2021/11/13 09:05:23;;;;;;;73.78;39.10;;;14.90;99.90;;;;;;5106550;28;20074;-74
2021/11/13 09:07:49;;;;;;;77.68;39.45;;;14.90;99.90;;;;;;5112028;28;20019;-75
2021/11/13 09:10:16;;;;;;;72.75;37.00;;;14.80;99.90;;;;;;5111466;28;20055;-75
2021/11/13 09:12:43;;;;;;;70.07;38.85;;;14.80;99.90;;;;;;5114649;28;20028;-75
2021/11/13 09:15:13;;;;;;;75.78;39.17;;;14.80;99.90;;;;;;5115302;28;20064;-76
2021/11/13 09:17:40;;;;;;;88.07;40.65;;;14.80;99.90;;;;;;5096392;28;20483;-76
2021/11/13 09:20:07;;;;;;;71.95;42.45;;;14.80;99.90;;;;;;5110718;28;20028;-76
2021/11/13 09:22:34;;;;;;;75.35;42.90;;;14.80;99.90;;;;;;5101057;28;20024;-75
2021/11/13 09:25:00;;;;;;;75.93;42.50;;;14.80;99.90;;;;;;5108781;28;20020;-76
2021/11/13 09:27:25;;;;;;;85.88;44.80;;;14.80;99.90;;;;;;5114615;28;20019;-80
2021/11/13 09:29:51;;;;;;;93.72;46.08;;;14.70;99.90;;;;;;5114377;28;20031;-76
2021/11/13 09:32:17;;;;;;;96.55;47.65;;;14.70;99.90;;;;;;5114811;28;20027;-79
2021/11/13 09:34:43;;;;;;;88.82;48.63;;;14.70;99.90;;;;;;5115085;28;20723;-83
2021/11/13 09:37:09;;;;;;;85.18;46.20;;;14.80;99.90;;;;;;5114555;28;20402;-82
2021/11/13 09:39:34;;;;;;;80.90;47.00;;;14.80;99.90;;;;;;5115069;28;20080;-78
2021/11/13 09:42:03;;;;;;;93.25;51.10;;;14.80;99.90;;;;;;5115162;28;20043;-74
2021/11/13 09:44:29;;;;;;;78.72;44.60;;;14.80;99.90;;;;;;5114492;28;20023;-76
2021/11/13 09:46:59;;;;;;;89.75;47.40;;;14.80;99.90;;;;;;5111635;28;20502;-75
2021/11/13 09:49:29;;;;;;;97.13;49.25;;;14.80;99.90;;;;;;5094010;28;20085;-75
2021/11/13 09:51:57;;;;;;;90.20;47.70;;;14.80;99.90;;;;;;5093737;28;20479;-76
2021/11/13 09:54:23;;;;;;;91.47;49.53;;;14.80;99.90;;;;;;5092886;28;20500;-75
2021/11/13 09:56:49;;;;;;;97.63;49.65;;;14.80;99.90;;;;;;5105357;28;20429;-76
2021/11/13 09:59:16;;;;;;;91.50;51.90;;;14.80;99.90;;;;;;5113906;28;20027;-75
2021/11/13 10:01:42;;;;;;;92.15;51.65;;;14.90;99.90;;;;;;5114575;28;20028;-77
2021/11/13 10:04:07;;;;;;;92.53;51.42;;;14.90;99.90;;;;;;5114295;28;20034;-77
2021/11/13 10:06:33;;;;;;;94.82;49.15;;;14.90;99.90;;;;;;5111842;28;20024;-76
2021/11/13 10:08:59;;;;;;;89.13;46.45;;;14.90;99.90;;;;;;5111864;28;20026;-76
2021/11/13 10:11:27;;;;;;;89.20;48.35;;;14.90;99.90;;;;;;5113839;28;20785;-75
2021/11/13 10:13:56;;;;;;;91.68;45.35;;;14.90;99.90;;;;;;5114515;28;20027;-75
2021/11/13 10:16:33;;;;;;;80.97;43.83;;;14.80;99.90;;;;;;5112630;28;20023;-75
2021/11/13 10:19:09;;;;;;;86.88;46.40;;;14.80;99.90;;;;;;5113270;28;20042;-75
2021/11/13 10:21:37;;;;;;;78.20;44.65;;;14.80;99.90;;;;;;5113168;28;20019;-75
2021/11/13 10:24:15;;;;;;;87.35;43.47;;;14.80;99.90;;;;;;5113785;28;20107;-75
2021/11/13 10:26:47;;;;;;;80.03;44.47;;;14.80;99.90;;;;;;5113008;28;20058;-75
2021/11/13 10:29:24;;;;;;;90.65;49.28;;;14.80;99.90;;;;;;5113591;28;20016;-75
2021/11/13 10:31:52;;;;;;;84.85;47.42;;;14.70;99.90;;;;;;5114134;28;20028;-76
2021/11/13 10:34:21;;;;;;;85.63;45.47;;;14.70;99.90;;;;;;5108818;28;20085;-76
2021/11/13 10:36:50;;;;;;;77.82;43.53;;;14.70;99.90;;;;;;5112500;28;20127;-76
2021/11/13 10:39:17;;;;;;;81.00;43.42;;;14.70;99.90;;;;;;5112032;28;20031;-77
2021/11/13 10:41:49;;;;;;;75.20;40.75;;;14.80;99.90;;;;;;5111767;28;20016;-77
2021/11/13 10:44:36;;;;;;;93.90;43.83;;;14.80;99.90;;;;;;5112130;28;20055;-77
2021/11/13 10:47:08;;;;;;;82.97;43.08;;;14.80;99.90;;;;;;5112579;28;20447;-77
2021/11/13 10:49:34;;;;;;;;;;;14.80;99.90;;;;;;5108517;28;20054;-76
2021/11/13 10:52:02;;;;;;;90.60;48.22;;;14.80;99.90;;;;;;5092730;28;20364;-76
2021/11/13 10:54:29;;;;;;;154.23;79.22;;;14.80;99.90;;;;;;5092630;28;20031;-77
2021/11/13 10:56:56;;;;;;;81.70;45.88;;;14.80;99.90;;;;;;5092927;28;20016;-76
2021/11/13 10:59:33;;;;;;;93.65;51.55;;;14.80;99.90;;;;;;5094146;28;20020;-76
2021/11/13 11:02:01;;;;;;;80.30;42.72;;;14.90;99.90;;;;;;5112828;28;20019;-75
2021/11/13 11:04:31;;;;;;;81.60;40.65;;;14.90;99.90;;;;;;5112517;28;20023;-76
2021/11/13 11:07:05;;;;;;;75.57;41.80;;;15.00;99.90;;;;;;5112152;28;20019;-76
2021/11/13 11:09:42;;;;;;;85.22;39.05;;;15.00;99.90;;;;;;5112604;28;20028;-76
2021/11/13 11:12:21;;;;;;;74.78;41.70;;;15.10;99.90;;;;;;5112303;28;20038;-76
2021/11/13 11:14:51;;;;;;;72.18;37.78;;;15.20;99.90;;;;;;5111886;28;20050;-76
2021/11/13 11:17:20;;;;;;;71.55;39.13;;;15.20;99.90;;;;;;5094110;28;20020;-77
2021/11/13 11:19:50;;;;;;;78.80;39.83;;;15.20;99.90;;;;;;5112280;28;20349;-76
2021/11/13 11:22:24;;;;;;;73.97;39.30;;;15.30;99.90;;;;;;5112209;28;20015;-76
2021/11/13 11:24:53;;;;;;;81.22;38.05;;;15.40;99.90;;;;;;5111645;28;20024;-76
2021/11/13 11:27:26;;;;;;;83.25;40.92;;;15.40;99.90;;;;;;5096605;28;20077;-76
2021/11/13 11:30:03;;;;;;;79.05;43.85;;;15.40;99.90;;;;;;5072305;28;20036;-77
2021/11/13 11:32:32;;;;;;;73.63;40.15;;;15.40;99.90;;;;;;5090402;28;20028;-77
2021/11/13 11:35:01;;;;;;;75.18;41.08;;;15.40;99.90;;;;;;5091837;28;20088;-77
2021/11/13 11:37:29;;;;;;;73.10;38.70;;;15.40;99.90;;;;;;5073935;28;20043;-77
2021/11/13 11:40:10;;;;;;;82.15;43.72;;;15.40;99.90;;;;;;5073967;28;20040;-77
2021/11/13 11:42:37;;;;;;;79.13;39.15;;;15.40;99.90;;;;;;5092216;28;20372;-77
2021/11/13 11:45:04;;;;;;;75.38;44.55;;;15.50;99.90;;;;;;5074138;28;20027;-76
2021/11/13 11:47:32;;;;;;;80.43;41.95;;;15.40;99.90;;;;;;5094777;28;20480;-77
2021/11/13 11:50:03;;;;;;;83.95;44.15;;;15.40;99.90;;;;;;5111855;28;20023;-76
2021/11/13 11:52:31;;;;;;;82.93;40.17;;;15.40;99.90;;;;;;5112469;28;20019;-77
2021/11/13 11:54:57;;;;;;;70.10;40.20;;;15.40;99.90;;;;;;5111871;28;20403;-77
2021/11/13 11:57:35;;;;;;;73.05;40.00;;;15.40;99.90;;;;;;5110846;28;20463;-76
2021/11/13 12:00:10;;;;;;;72.03;38.97;;;15.40;99.90;;;;;;5106859;28;20111;-76
2021/11/13 12:02:51;;;;;;;80.55;39.17;;;15.50;99.90;;;;;;5112494;28;20030;-76
2021/11/13 12:05:20;;;;;;;77.65;41.97;;;15.50;99.90;;;;;;5111566;28;20098;-76
2021/11/13 12:07:47;;;;;;;79.03;40.08;;;15.50;99.90;;;;;;5092796;28;20035;-76
2021/11/13 12:10:21;;;;;;;79.57;40.33;;;15.50;99.90;;;;;;5110895;28;20020;-77
2021/11/13 12:13:06;;;;;;;75.82;40.35;;;15.50;99.90;;;;;;5111328;28;20018;-76
2021/11/13 12:15:59;;;;;;;65.93;38.80;;;15.50;99.90;;;;;;5110425;28;20027;-76
2021/11/13 12:18:43;;;;;;;74.78;39.80;;;15.50;99.90;;;;;;5089737;28;20108;-77
2021/11/13 12:21:12;;;;;;;73.10;40.80;;;15.50;99.90;;;;;;5109287;28;20035;-76
2021/11/13 12:23:43;;;;;;;76.45;40.70;;;15.60;99.90;;;;;;5092347;28;20355;-75
2021/11/13 12:26:22;;;;;;;67.35;36.58;;;15.70;99.90;;;;;;5111360;28;20043;-76
2021/11/13 12:28:55;;;;;;;68.28;38.83;;;15.80;99.90;;;;;;5110848;28;20119;-76